Time;durP1;ratioP1;P1;durP2;ratioP2;P2;SDS_P1;SDS_P2;PMS_P1;PMS_P2;Temp;Humidity;BMP_temperature;BMP_pressure;BME280_temperature;BME280_humidity;BME280_pressure;Samples;Min_cycle;Max_cycle;Signal;HPM_P1;HPM_P2
2021/12/25 00:00:21;;;;;;;64.10;10.10;;;;;;;5.59;100.00;99141.31;5076517;28;20060;-51
2021/12/25 00:02:50;;;;;;;30.98;7.30;;;;;;;5.68;100.00;99144.31;5076371;28;20092;-51
2021/12/25 00:05:19;;;;;;;31.98;6.72;;;;;;;5.75;100.00;99158.78;5076450;28;20057;-50
2021/12/25 00:07:49;;;;;;;35.25;7.82;;;;;;;5.77;100.00;99159.53;5077796;28;20064;-48
2021/12/25 00:10:17;;;;;;;35.90;8.98;;;;;;;5.74;100.00;99150.03;5076212;28;20057;-51
2021/12/25 00:12:45;;;;;;;59.00;17.00;;;;;;;5.71;100.00;99154.63;5076261;28;20057;-50
2021/12/25 00:15:13;;;;;;;48.10;14.27;;;;;;;5.79;100.00;99147.09;5076171;28;20067;-50
2021/12/25 00:17:42;;;;;;;53.92;14.02;;;;;;;5.88;100.00;99143.88;5076989;28;20083;-50
2021/12/25 00:20:11;;;;;;;87.88;21.63;;;;;;;6.03;100.00;99143.84;5076206;28;20066;-51
2021/12/25 00:22:39;;;;;;;68.30;16.55;;;;;;;6.13;100.00;99151.03;5076087;28;20065;-49
2021/12/25 00:25:09;;;;;;;42.70;10.77;;;;;;;6.27;100.00;99137.00;5076135;28;20075;-50
2021/12/25 00:27:53;;;;;;;54.97;13.65;;;;;;;6.33;100.00;99147.09;5076610;28;20052;-51
2021/12/25 00:30:29;;;;;;;35.08;8.40;;;;;;;6.44;100.00;99137.66;5076193;28;20068;-51
2021/12/25 00:33:02;;;;;;;39.58;8.60;;;;;;;6.54;100.00;99132.59;5075636;28;20052;-51
2021/12/25 00:35:31;;;;;;;31.88;8.38;;;;;;;6.65;100.00;99136.19;5075626;28;20535;-49
2021/12/25 00:37:59;;;;;;;28.67;7.35;;;;;;;6.74;100.00;99134.75;5076089;28;20055;-49
2021/12/25 00:40:29;;;;;;;24.20;8.80;;;;;;;6.69;100.00;99137.69;5076078;28;20056;-51
2021/12/25 00:42:57;;;;;;;39.92;8.27;;;;;;;6.72;100.00;99130.53;5076040;28;20519;-51
2021/12/25 00:45:25;;;;;;;24.90;6.05;;;;;;;6.74;100.00;99124.22;5075970;28;20075;-51
2021/12/25 00:47:54;;;;;;;23.42;6.32;;;;;;;6.78;100.00;99130.13;5075609;28;20056;-50
2021/12/25 00:50:22;;;;;;;28.00;7.38;;;;;;;6.86;100.00;99133.06;5075441;28;20056;-49
2021/12/25 00:52:50;;;;;;;39.25;7.97;;;;;;;6.90;100.00;99128.44;5075844;28;20064;-50
2021/12/25 00:55:18;;;;;;;44.45;7.75;;;;;;;6.86;100.00;99114.63;5075220;28;20057;-49
2021/12/25 00:57:48;;;;;;;21.75;6.40;;;;;;;6.76;100.00;99119.69;5075192;28;20079;-51
2021/12/25 01:00:17;;;;;;;28.42;7.32;;;;;;;6.63;100.00;99106.50;5075727;28;20060;-52
2021/12/25 01:02:47;;;;;;;32.80;7.68;;;;;;;6.57;100.00;99112.16;5075513;28;20524;-50
2021/12/25 01:05:16;;;;;;;38.08;6.70;;;;;;;6.54;100.00;99115.03;5075306;28;20143;-50
2021/12/25 01:07:45;;;;;;;29.17;6.63;;;;;;;6.59;100.00;99109.44;5075198;28;20057;-51
2021/12/25 01:10:17;;;;;;;27.13;5.18;;;;;;;6.70;100.00;99105.13;5075387;28;20413;-50
2021/12/25 01:12:59;;;;;;;34.65;6.72;;;;;;;6.75;100.00;99107.44;5076031;28;20053;-51
2021/12/25 01:15:34;;;;;;;33.97;6.55;;;;;;;6.74;100.00;99107.53;5075756;28;20075;-50
2021/12/25 01:21:09;;;;;;;43.95;6.38;;;;;;;6.87;100.00;99111.84;5074622;28;20061;-49
2021/12/25 01:29:20;;;;;;;34.15;5.30;;;;;;;7.20;100.00;99109.63;5075110;28;20488;-50
2021/12/25 01:32:05;;;;;;;40.35;5.95;;;;;;;7.17;100.00;99113.31;5075779;28;20411;-49
2021/12/25 01:37:19;;;;;;;32.83;5.72;;;;;;;7.23;100.00;99102.34;5065930;28;20063;-50
2021/12/25 01:39:56;;;;;;;32.67;6.10;;;;;;;7.16;100.00;99102.88;5075084;28;20064;-51
2021/12/25 01:47:57;;;;;;;32.13;5.63;;;;;;;7.06;100.00;99103.53;5074250;28;20052;-49
2021/12/25 01:50:27;;;;;;;36.85;7.10;;;;;;;7.12;100.00;99101.41;5074934;28;20057;-48
2021/12/25 01:52:57;;;;;;;36.83;5.18;;;;;;;7.24;100.00;99105.81;5075317;28;20056;-51
2021/12/25 01:55:28;;;;;;;42.05;5.68;;;;;;;7.26;100.00;99096.00;5075286;28;20052;-51
2021/12/25 01:57:59;;;;;;;35.42;6.03;;;;;;;7.27;100.00;99100.34;5074469;28;20052;-49
2021/12/25 02:00:39;;;;;;;42.25;4.78;;;;;;;7.25;100.00;99099.59;5074961;28;20056;-49
2021/12/25 02:03:09;;;;;;;28.65;4.22;;;;;;;7.14;100.00;99102.16;5075028;28;20060;-49
2021/12/25 02:05:38;;;;;;;24.27;5.03;;;;;;;7.28;100.00;99104.66;5074017;28;20064;-49
2021/12/25 02:08:21;;;;;;;25.58;5.00;;;;;;;7.35;100.00;99092.72;5075427;28;20165;-51
2021/12/25 02:10:50;;;;;;;37.65;5.65;;;;;;;7.40;100.00;99103.78;5073775;28;20531;-51
2021/12/25 02:13:18;;;;;;;42.90;5.43;;;;;;;7.41;100.00;99097.56;5074486;28;20059;-54
2021/12/25 02:15:49;;;;;;;32.83;4.88;;;;;;;7.49;100.00;99098.81;5074526;28;20065;-51
2021/12/25 02:18:24;;;;;;;53.53;4.85;;;;;;;7.47;100.00;99098.09;5074271;28;20067;-50
2021/12/25 02:21:01;;;;;;;36.03;4.60;;;;;;;7.54;100.00;99104.59;5075011;28;20471;-49
2021/12/25 02:23:32;;;;;;;38.55;5.78;;;;;;;7.69;100.00;99106.13;5074711;28;20052;-50
2021/12/25 02:26:01;;;;;;;44.80;7.35;;;;;;;7.75;100.00;99104.81;5075498;28;20060;-50
2021/12/25 02:28:30;;;;;;;32.05;5.95;;;;;;;7.77;100.00;99109.06;5074313;28;20064;-50
2021/12/25 02:30:59;;;;;;;28.52;5.13;;;;;;;7.81;100.00;99113.13;5074502;28;20057;-49
2021/12/25 02:33:28;;;;;;;46.50;5.97;;;;;;;7.85;100.00;99105.88;5075223;28;20407;-51
2021/12/25 02:35:58;;;;;;;51.33;5.03;;;;;;;7.89;100.00;99111.75;5073946;28;20048;-51
2021/12/25 02:38:28;;;;;;;27.98;4.38;;;;;;;7.97;100.00;99106.75;5073948;28;20057;-50
2021/12/25 02:40:56;;;;;;;33.22;4.80;;;;;;;8.01;100.00;99102.94;5074256;28;20056;-50
2021/12/25 02:43:25;;;;;;;33.50;4.95;;;;;;;8.03;100.00;99092.25;5074813;28;20052;-50
2021/12/25 02:45:55;;;;;;;24.70;4.07;;;;;;;8.06;100.00;99103.44;5073865;28;20064;-51
2021/12/25 02:48:24;;;;;;;37.58;5.72;;;;;;;8.11;100.00;99101.28;5073865;28;20057;-51
2021/12/25 02:50:53;;;;;;;28.52;4.57;;;;;;;8.12;100.00;99102.97;5073983;28;20067;-49
2021/12/25 02:53:23;;;;;;;29.95;4.63;;;;;;;8.24;100.00;99105.66;5075019;28;20064;-49
2021/12/25 02:55:51;;;;;;;31.15;4.20;;;;;;;8.29;100.00;99095.59;5074663;28;20078;-49
2021/12/25 02:58:19;;;;;;;24.27;4.22;;;;;;;8.26;100.00;99098.47;5073780;28;20492;-49
2021/12/25 03:00:51;;;;;;;27.75;4.00;;;;;;;8.29;100.00;99093.78;5074037;28;20053;-50
2021/12/25 03:03:19;;;;;;;;;;;;;;;8.40;100.00;99095.63;5074674;28;20088;-50
2021/12/25 03:05:47;;;;;;;19.65;5.35;;;;;;;8.42;100.00;99091.06;5074790;28;19920;-52
2021/12/25 03:08:16;;;;;;;33.63;5.35;;;;;;;8.42;100.00;99088.41;5074241;28;20048;-51
2021/12/25 03:10:47;;;;;;;24.55;4.57;;;;;;;8.43;100.00;99084.84;5073562;28;20071;-49
2021/12/25 03:13:31;;;;;;;23.02;4.80;;;;;;;8.50;100.00;99087.88;5073579;28;20057;-50
2021/12/25 03:16:01;;;;;;;20.70;4.75;;;;;;;8.46;100.00;99094.38;5074474;28;20064;-48
2021/12/25 03:18:33;;;;;;;39.75;6.10;;;;;;;8.44;100.00;99088.31;5073531;28;20064;-51
2021/12/25 03:21:03;;;;;;;28.85;5.50;;;;;;;8.48;100.00;99081.88;5073521;28;20063;-50
2021/12/25 03:23:33;;;;;;;33.08;5.10;;;;;;;8.52;100.00;99078.88;5076699;28;20057;-51
2021/12/25 03:26:04;;;;;;;22.88;5.15;;;;;;;8.55;100.00;99086.56;5077204;28;20052;-50
2021/12/25 03:28:36;;;;;;;30.08;4.70;;;;;;;8.52;100.00;99089.44;5077834;28;20083;-51
2021/12/25 03:31:07;;;;;;;;;;;;;;;8.54;100.00;99084.88;5077601;28;20500;-49
2021/12/25 03:33:35;;;;;;;22.17;4.97;;;;;;;8.51;100.00;99079.00;5077050;28;19964;-49
2021/12/25 03:36:04;;;;;;;24.40;4.72;;;;;;;8.57;100.00;99075.03;5076984;28;20056;-50
2021/12/25 03:38:32;;;;;;;33.10;6.82;;;;;;;8.58;100.00;99082.00;5077239;28;20052;-51
2021/12/25 03:41:01;;;;;;;32.88;5.60;;;;;;;8.53;100.00;99077.06;5076908;28;20056;-51
2021/12/25 03:43:31;;;;;;;26.38;5.60;;;;;;;8.58;100.00;99076.72;5077788;28;20052;-50
2021/12/25 03:45:59;;;;;;;36.17;5.43;;;;;;;8.55;100.00;99078.63;5077304;28;20061;-51
2021/12/25 03:48:56;;;;;;;33.25;5.45;;;;;;;8.55;100.00;99083.91;5077326;28;20052;-50
2021/12/25 03:59:59;;;;;;;28.70;4.72;;;;;;;8.65;100.00;99088.50;5076346;28;20071;-48
2021/12/25 04:02:34;;;;;;;25.00;5.40;;;;;;;8.67;100.00;99091.88;5076509;28;20076;-51
2021/12/25 04:05:05;;;;;;;23.85;4.57;;;;;;;8.68;100.00;99089.09;5078256;28;20052;-49
2021/12/25 04:10:20;;;;;;;28.52;5.55;;;;;;;8.59;100.00;99079.25;5076165;28;20067;-50
2021/12/25 04:12:48;;;;;;;30.05;5.53;;;;;;;8.60;100.00;99080.09;5077391;28;20060;-51
2021/12/25 04:15:18;;;;;;;32.58;4.68;;;;;;;8.60;100.00;99083.56;5077466;28;20057;-51
2021/12/25 04:17:46;;;;;;;23.00;4.85;;;;;;;8.59;100.00;99088.97;5076036;28;20090;-51
2021/12/25 04:20:15;;;;;;;36.47;5.78;;;;;;;8.61;100.00;99077.34;5077078;28;20059;-52
2021/12/25 04:22:47;;;;;;;33.50;6.55;;;;;;;8.60;100.00;99069.53;5077282;28;20076;-51
2021/12/25 04:25:21;;;;;;;27.85;4.78;;;;;;;8.65;100.00;99077.94;5076459;28;20052;-51
2021/12/25 04:27:50;;;;;;;30.70;5.10;;;;;;;8.64;100.00;99074.47;5075795;28;20056;-50
2021/12/25 04:30:29;;;;;;;25.90;5.20;;;;;;;8.58;100.00;99076.72;5076014;28;20068;-51
2021/12/25 04:50:21;;;;;;;14.20;3.22;;;;;;;8.40;100.00;99071.84;5076486;28;20068;-51
2021/12/25 05:01:48;;;;;;;23.15;3.13;;;;;;;8.09;100.00;99063.59;5033206;28;20529;-51
2021/12/25 05:04:23;;;;;;;13.30;2.55;;;;;;;8.00;100.00;99067.75;5065855;28;20063;-50
2021/12/25 05:06:51;;;;;;;16.60;2.72;;;;;;;7.93;100.00;99070.97;5075573;28;20056;-49
2021/12/25 05:09:19;;;;;;;16.00;2.65;;;;;;;7.94;100.00;99067.38;5075770;28;20408;-51
2021/12/25 05:11:47;;;;;;;16.05;3.08;;;;;;;7.98;100.00;99058.25;5075086;28;20052;-52
2021/12/25 05:14:15;;;;;;;10.10;2.80;;;;;;;7.92;100.00;99064.00;5074875;28;20059;-49
2021/12/25 05:16:44;;;;;;;15.02;3.63;;;;;;;7.93;100.00;99076.25;5076222;28;20064;-51
2021/12/25 05:19:12;;;;;;;20.38;2.63;;;;;;;7.91;100.00;99067.59;5076041;28;20063;-49
2021/12/25 05:21:42;;;;;;;10.25;2.00;;;;;;;7.80;100.00;99074.50;5074954;28;20056;-51
2021/12/25 05:24:10;;;;;;;14.43;2.53;;;;;;;7.78;100.00;99079.06;5074698;28;20065;-48
2021/12/25 05:26:39;;;;;;;14.82;2.45;;;;;;;7.76;100.00;99073.03;5075460;28;20056;-49
2021/12/25 05:29:07;;;;;;;17.40;2.10;;;;;;;7.78;100.00;99075.56;5074824;28;20416;-51
2021/12/25 05:31:37;;;;;;;17.80;2.00;;;;;;;7.82;100.00;99080.53;5075629;28;20052;-50
2021/12/25 05:34:05;;;;;;;13.77;2.45;;;;;;;7.86;100.00;99075.84;5074407;28;20090;-51
2021/12/25 05:36:34;;;;;;;17.67;2.83;;;;;;;7.87;100.00;99076.69;5074655;28;20056;-51
2021/12/25 05:39:08;;;;;;;12.45;2.25;;;;;;;7.87;100.00;99076.69;5075767;28;20056;-49
2021/12/25 05:41:36;;;;;;;17.33;2.83;;;;;;;7.79;100.00;99080.75;5074679;28;20056;-50
2021/12/25 05:44:05;;;;;;;20.08;3.47;;;;;;;7.77;100.00;99076.53;5075298;28;20067;-50
2021/12/25 05:46:38;;;;;;;18.17;3.17;;;;;;;7.78;100.00;99072.94;5074015;28;20062;-49
2021/12/25 05:49:07;;;;;;;15.18;2.30;;;;;;;7.86;100.00;99080.28;5074452;28;20064;-51
2021/12/25 05:51:35;;;;;;;18.77;3.35;;;;;;;7.92;100.00;99079.84;5074431;28;20607;-51
2021/12/25 05:54:05;;;;;;;22.48;3.60;;;;;;;7.92;100.00;99080.69;5074338;28;20060;-50
2021/12/25 05:56:33;;;;;;;16.45;3.60;;;;;;;7.97;100.00;99080.34;5075247;28;20057;-50
2021/12/25 05:59:01;;;;;;;17.52;3.03;;;;;;;8.00;100.00;99088.88;5075228;28;20053;-50
2021/12/25 06:01:29;;;;;;;15.80;2.78;;;;;;;8.00;100.00;99088.88;5074639;28;20053;-50
2021/12/25 06:03:58;;;;;;;17.55;2.90;;;;;;;8.01;100.00;99081.81;5074313;28;20060;-50
2021/12/25 06:06:26;;;;;;;23.92;4.18;;;;;;;7.99;100.00;99081.09;5074314;28;20052;-51
2021/12/25 06:08:54;;;;;;;22.10;3.45;;;;;;;7.96;100.00;99083.94;5074262;28;20052;-49
2021/12/25 06:11:25;;;;;;;20.88;4.35;;;;;;;7.85;100.00;99086.53;5075080;28;20056;-50
2021/12/25 06:13:57;;;;;;;15.23;3.20;;;;;;;7.82;100.00;99096.34;5073868;28;20060;-48
2021/12/25 06:16:26;;;;;;;17.67;3.00;;;;;;;7.77;100.00;99093.22;5074519;28;20064;-49
2021/12/25 06:18:55;;;;;;;13.65;3.38;;;;;;;7.82;100.00;99091.06;5073905;28;20064;-49
2021/12/25 06:21:23;;;;;;;25.20;3.80;;;;;;;7.81;100.00;99094.66;5074477;28;20056;-49
2021/12/25 06:23:51;;;;;;;26.02;3.53;;;;;;;7.79;100.00;99088.66;5074918;28;20056;-51
2021/12/25 06:26:38;;;;;;;22.80;3.63;;;;;;;7.79;100.00;99088.66;5073840;28;20056;-49
2021/12/25 06:29:06;;;;;;;;;;;;;;;7.86;100.00;99096.97;5074252;28;20504;-49
2021/12/25 06:31:34;;;;;;;18.17;3.55;;;;;;;7.96;100.00;99094.50;5074020;28;19921;-49
2021/12/25 06:34:03;;;;;;;20.10;3.65;;;;;;;8.05;100.00;99095.63;5074528;28;20057;-50
2021/12/25 06:36:32;;;;;;;34.67;4.50;;;;;;;8.16;100.00;99093.84;5074516;28;20056;-49
2021/12/25 06:39:00;;;;;;;20.75;3.65;;;;;;;8.20;100.00;99094.47;5074549;28;20059;-49
2021/12/25 06:41:29;;;;;;;28.02;4.45;;;;;;;8.25;100.00;99088.84;5073919;28;20049;-50
2021/12/25 06:43:59;;;;;;;19.38;4.00;;;;;;;8.22;100.00;99087.28;5074557;28;20063;-51
2021/12/25 06:46:27;;;;;;;28.30;5.40;;;;;;;8.18;100.00;99085.81;5073864;28;20052;-51
2021/12/25 06:48:55;;;;;;;21.80;5.45;;;;;;;8.18;100.00;99081.38;5075196;28;20082;-50
2021/12/25 06:51:23;;;;;;;18.92;4.32;;;;;;;8.12;100.00;99087.13;5073851;28;20064;-49
2021/12/25 06:53:52;;;;;;;27.80;4.40;;;;;;;8.11;100.00;99085.44;5073790;28;20056;-50
2021/12/25 06:56:21;;;;;;;22.55;5.60;;;;;;;8.15;100.00;99092.19;5075493;28;20056;-50
2021/12/25 06:58:49;;;;;;;13.75;4.45;;;;;;;8.21;100.00;99097.97;5079075;28;20056;-49
2021/12/25 07:01:19;;;;;;;28.73;4.78;;;;;;;8.29;100.00;99091.16;5077673;28;20053;-50
2021/12/25 07:03:47;;;;;;;33.03;4.97;;;;;;;8.38;100.00;99086.97;5077363;28;20062;-50
2021/12/25 07:06:16;;;;;;;22.77;5.57;;;;;;;8.34;100.00;99090.81;5077871;28;20063;-48
2021/12/25 07:08:44;;;;;;;30.65;6.80;;;;;;;8.29;100.00;99087.69;5077757;28;20056;-50
2021/12/25 07:11:13;;;;;;;19.73;4.88;;;;;;;8.25;100.00;99102.06;5077761;28;20056;-51
2021/12/25 07:13:43;;;;;;;31.50;5.03;;;;;;;8.27;100.00;99093.06;5077419;28;20052;-51
2021/12/25 07:16:12;;;;;;;17.70;5.10;;;;;;;8.41;100.00;99094.66;5077689;28;20057;-50
2021/12/25 07:18:41;;;;;;;27.33;5.25;;;;;;;8.55;100.00;99098.94;5077593;28;20098;-51
2021/12/25 07:21:10;;;;;;;23.63;5.97;;;;;;;8.59;100.00;99099.53;5077822;28;20052;-49
2021/12/25 07:23:38;;;;;;;30.80;5.55;;;;;;;8.66;100.00;99106.06;5077268;28;20068;-49
2021/12/25 07:26:07;;;;;;;27.42;5.53;;;;;;;8.65;100.00;99099.09;5077177;28;20067;-49
2021/12/25 07:28:35;;;;;;;27.23;5.88;;;;;;;8.74;100.00;99101.88;5077158;28;20052;-50
2021/12/25 07:31:05;;;;;;;33.53;6.03;;;;;;;8.70;100.00;99089.81;5077401;28;20369;-51
2021/12/25 07:33:35;;;;;;;34.40;4.97;;;;;;;8.84;100.00;99094.06;5078170;28;20133;-51
2021/12/25 07:36:05;;;;;;;35.90;5.47;;;;;;;8.82;100.00;99105.72;5077337;28;20079;-51
2021/12/25 07:38:33;;;;;;;27.55;5.55;;;;;;;8.77;100.00;99100.78;5077332;28;20504;-49
2021/12/25 07:41:01;;;;;;;26.45;4.68;;;;;;;8.73;100.00;99101.97;5077867;28;20067;-49
2021/12/25 07:43:30;;;;;;;28.73;6.05;;;;;;;8.76;100.00;99106.19;5078073;28;20057;-49
2021/12/25 07:45:58;;;;;;;19.48;4.57;;;;;;;8.73;100.00;99104.63;5076817;28;20057;-49
2021/12/25 07:48:27;;;;;;;26.58;4.70;;;;;;;8.83;100.00;99113.53;5076829;28;20516;-51
2021/12/25 07:50:55;;;;;;;27.40;4.57;;;;;;;8.74;100.00;99119.50;5077059;28;20421;-49
2021/12/25 07:53:25;;;;;;;22.52;4.57;;;;;;;8.76;100.00;99106.19;5077540;28;20485;-52
2021/12/25 07:55:53;;;;;;;19.55;4.40;;;;;;;8.83;100.00;99113.53;5077437;28;20431;-51
2021/12/25 07:58:22;;;;;;;18.83;5.35;;;;;;;8.89;100.00;99112.19;5076935;28;20079;-51
2021/12/25 08:00:51;;;;;;;21.75;4.88;;;;;;;8.92;100.00;99118.09;5076896;28;20056;-51
2021/12/25 08:03:20;;;;;;;16.23;4.95;;;;;;;8.95;100.00;99113.56;5077714;28;20449;-50
2021/12/25 08:05:48;;;;;;;24.73;4.80;;;;;;;9.01;100.00;99110.41;5076747;28;20067;-51
2021/12/25 08:08:17;;;;;;;20.30;5.53;;;;;;;9.06;100.00;99124.13;5075874;28;20515;-50
2021/12/25 08:10:46;;;;;;;16.05;5.32;;;;;;;9.04;100.00;99120.75;5076736;28;20064;-48
2021/12/25 08:13:16;;;;;;;16.98;4.07;;;;;;;9.03;100.00;99119.94;5076880;28;20049;-51
2021/12/25 08:15:45;;;;;;;20.75;4.57;;;;;;;8.95;100.00;99124.13;5076057;28;20056;-50
2021/12/25 08:18:13;;;;;;;21.92;4.38;;;;;;;8.98;100.00;99121.22;5076918;28;20065;-51
2021/12/25 08:20:42;;;;;;;18.15;3.95;;;;;;;8.98;100.00;99118.56;5077404;28;20053;-51
2021/12/25 08:23:10;;;;;;;20.00;4.50;;;;;;;8.93;100.00;99119.78;5076182;28;20056;-51
2021/12/25 08:25:38;;;;;;;13.32;3.63;;;;;;;8.90;100.00;99124.47;5076687;28;20067;-51
2021/12/25 08:28:09;;;;;;;13.32;3.65;;;;;;;8.92;100.00;99128.66;5076357;28;20420;-50
2021/12/25 08:30:37;;;;;;;10.52;3.60;;;;;;;8.97;100.00;99135.44;5076035;28;20063;-51
2021/12/25 08:33:05;;;;;;;14.93;3.10;;;;;;;8.92;100.00;99128.66;5075963;28;20052;-51
2021/12/25 08:35:34;;;;;;;20.50;4.05;;;;;;;8.96;100.00;99128.44;5075893;28;20060;-50
2021/12/25 08:38:02;;;;;;;17.75;4.03;;;;;;;9.04;100.00;99132.16;5076745;28;20088;-51
2021/12/25 08:40:30;;;;;;;15.15;3.33;;;;;;;9.09;100.00;99131.81;5075814;28;20053;-51
2021/12/25 08:43:02;;;;;;;10.00;3.20;;;;;;;9.05;100.00;99133.03;5076884;28;20072;-50
2021/12/25 08:45:41;;;;;;;14.93;3.43;;;;;;;8.99;100.00;99122.91;5076233;28;20052;-50
2021/12/25 08:48:15;;;;;;;11.60;2.55;;;;;;;8.90;100.00;99125.31;5075400;28;20056;-50
2021/12/25 08:50:47;;;;;;;8.23;3.00;;;;;;;8.86;100.00;99123.00;5076561;28;20083;-51
2021/12/25 08:53:16;;;;;;;11.32;3.33;;;;;;;8.88;100.00;99126.41;5075357;28;20052;-49
2021/12/25 08:55:44;;;;;;;8.13;3.20;;;;;;;8.87;100.00;99122.06;5075451;28;20071;-50
2021/12/25 08:58:13;;;;;;;12.18;3.20;;;;;;;8.96;100.00;99125.78;5075493;28;20071;-50
2021/12/25 09:00:43;;;;;;;13.05;2.97;;;;;;;9.05;100.00;99131.22;5075705;28;20053;-49
2021/12/25 09:03:11;;;;;;;10.20;2.85;;;;;;;9.04;100.00;99134.81;5075131;28;20056;-49
2021/12/25 09:05:39;;;;;;;6.22;2.67;;;;;;;9.08;100.00;99132.81;5075358;28;20057;-50
2021/12/25 09:08:08;;;;;;;6.97;2.22;;;;;;;9.01;100.00;99131.56;5075214;28;20060;-51
2021/12/25 09:10:36;;;;;;;6.78;1.92;;;;;;;9.09;100.00;99134.47;5075210;28;20527;-49
2021/12/25 09:13:04;;;;;;;4.15;2.03;;;;;;;9.13;100.00;99135.94;5075658;28;20052;-50
2021/12/25 09:15:33;;;;;;;8.68;2.42;;;;;;;9.15;100.00;99144.59;5076239;28;20412;-51
2021/12/25 09:18:02;;;;;;;3.88;2.00;;;;;;;9.24;100.00;99151.78;5075017;28;20114;-51
2021/12/25 09:20:31;;;;;;;5.18;2.30;;;;;;;9.33;100.00;99142.31;5074090;28;20060;-51
2021/12/25 09:22:59;;;;;;;6.65;2.25;;;;;;;9.39;100.00;99143.63;5074973;28;20052;-51
2021/12/25 09:25:27;;;;;;;8.40;1.60;;;;;;;9.48;100.00;99153.47;5075239;28;20408;-51
2021/12/25 09:27:57;;;;;;;2.65;1.50;;;;;;;9.54;100.00;99153.00;5074847;28;20523;-50
2021/12/25 09:30:25;;;;;;;3.70;1.45;;;;;;;9.52;100.00;99154.09;5075157;28;20060;-49
2021/12/25 09:32:54;;;;;;;3.53;1.27;;;;;;;9.52;100.00;99157.56;5074976;28;20053;-50
2021/12/25 09:35:24;;;;;;;5.25;1.58;;;;;;;9.75;100.00;99147.81;5075429;28;20088;-49
2021/12/25 09:37:52;;;;;;;5.80;1.80;;;;;;;9.80;100.00;99156.22;5075191;28;20065;-51
2021/12/25 09:40:20;;;;;;;4.68;1.40;;;;;;;9.80;100.00;99155.34;5074899;28;20060;-49
2021/12/25 09:42:48;;;;;;;4.63;1.42;;;;;;;10.07;100.00;99162.03;5074550;28;20061;-50
2021/12/25 09:45:16;;;;;;;6.95;1.75;;;;;;;10.24;100.00;99158.88;5074297;28;20535;-51
2021/12/25 09:47:45;;;;;;;3.40;1.35;;;;;;;10.55;100.00;99156.34;5074797;28;20057;-49
2021/12/25 09:50:13;;;;;;;5.28;1.38;;;;;;;11.56;100.00;99156.63;5074488;28;20630;-51
2021/12/25 09:52:43;;;;;;;4.53;1.10;;;;;;;12.32;100.00;99153.44;5074436;28;20492;-51
2021/12/25 09:55:13;;;;;;;3.13;1.23;;;;;;;13.32;96.67;99162.84;5075215;28;20060;-51
2021/12/25 09:57:41;;;;;;;3.10;1.23;;;;;;;14.60;85.83;99163.78;5074354;28;20057;-51
2021/12/25 10:00:12;;;;;;;2.92;1.30;;;;;;;15.70;78.58;99174.81;5075420;28;20048;-50
2021/12/25 10:02:45;;;;;;;2.20;0.95;;;;;;;16.07;74.09;99173.63;5075227;28;20407;-49
2021/12/25 10:05:13;;;;;;;4.95;1.13;;;;;;;15.75;73.09;99176.06;5074038;28;20057;-50
2021/12/25 10:07:43;;;;;;;2.65;0.88;;;;;;;15.83;73.40;99175.22;5074180;28;20500;-49
2021/12/25 10:10:14;;;;;;;2.17;0.80;;;;;;;16.15;71.85;99170.97;5074237;28;20053;-51
2021/12/25 10:12:45;;;;;;;8.17;1.30;;;;;;;16.31;69.68;99168.34;5073959;28;20056;-51
2021/12/25 10:15:18;;;;;;;2.30;1.05;;;;;;;15.80;70.38;99172.88;5074687;28;20060;-49
2021/12/25 10:17:50;;;;;;;2.92;0.90;;;;;;;15.14;74.09;99171.69;5074054;28;20060;-51
2021/12/25 10:20:21;;;;;;;2.67;0.75;;;;;;;14.15;78.50;99173.50;5075062;28;20056;-49
2021/12/25 10:23:05;;;;;;;2.92;1.10;;;;;;;13.74;81.21;99157.88;5073736;28;20524;-51
2021/12/25 10:25:38;;;;;;;4.53;0.98;;;;;;;13.52;83.99;99158.28;5073784;28;20067;-50
2021/12/25 10:28:08;;;;;;;3.50;1.00;;;;;;;13.54;83.43;99158.97;5074981;28;20090;-51
2021/12/25 10:30:54;;;;;;;2.42;0.98;;;;;;;13.86;84.27;99163.03;5073752;28;20063;-49
2021/12/25 10:33:28;;;;;;;5.38;1.52;;;;;;;14.85;79.61;99168.31;5074908;28;20416;-51
2021/12/25 10:35:58;;;;;;;4.80;1.15;;;;;;;15.09;75.18;99161.47;5074407;28;20060;-51
2021/12/25 10:38:29;;;;;;;4.53;1.10;;;;;;;15.66;73.69;99157.44;5074004;28;20056;-50
2021/12/25 10:41:18;;;;;;;2.22;0.90;;;;;;;16.59;70.19;99161.84;5073692;28;20500;-51
2021/12/25 10:43:48;;;;;;;2.55;1.00;;;;;;;16.32;68.83;99162.00;5074945;28;20056;-52
2021/12/25 10:46:17;;;;;;;2.60;1.20;;;;;;;16.14;69.74;99153.28;5074157;28;20106;-50
2021/12/25 10:48:46;;;;;;;3.58;1.40;;;;;;;16.04;69.14;99157.91;5074101;28;20131;-51
2021/12/25 10:51:29;;;;;;;4.53;1.23;;;;;;;15.49;70.73;99170.72;5073836;28;20546;-49
2021/12/25 10:53:59;;;;;;;5.95;1.20;;;;;;;15.56;71.42;99150.34;5074083;28;20065;-50
2021/12/25 10:56:36;;;;;;;2.50;1.08;;;;;;;15.56;70.86;99155.69;5074305;28;20067;-49
2021/12/25 10:59:06;;;;;;;3.90;1.00;;;;;;;15.57;71.25;99149.38;5073483;28;20052;-50
2021/12/25 11:01:40;;;;;;;6.03;1.37;;;;;;;15.38;71.86;99158.47;5073480;28;20092;-52
2021/12/25 11:04:30;;;;;;;4.32;1.52;;;;;;;14.55;74.59;99147.38;5074547;28;20283;-49
2021/12/25 11:07:00;;;;;;;6.82;1.60;;;;;;;15.23;72.99;99146.69;5073919;28;20068;-49
2021/12/25 11:09:29;;;;;;;4.55;1.60;;;;;;;15.36;72.66;99139.06;5073399;28;20064;-49
2021/12/25 11:12:20;;;;;;;4.65;1.35;;;;;;;15.38;71.54;99152.28;5073930;28;20072;-51
2021/12/25 11:14:52;;;;;;;3.53;1.17;;;;;;;14.59;74.37;99140.75;5073498;28;20056;-51
2021/12/25 11:17:25;;;;;;;4.57;1.65;;;;;;;13.98;78.49;99142.31;5073532;28;20057;-50
2021/12/25 11:19:59;;;;;;;9.43;1.65;;;;;;;13.65;81.34;99136.59;5074042;28;20060;-52
2021/12/25 11:22:28;;;;;;;5.40;1.48;;;;;;;13.37;82.85;99131.28;5074592;28;20072;-49
2021/12/25 11:24:59;;;;;;;4.47;1.27;;;;;;;13.18;84.54;99119.69;5073843;28;20052;-50
2021/12/25 11:27:27;;;;;;;9.20;1.88;;;;;;;13.13;84.96;99131.75;5074389;28;20408;-49
2021/12/25 11:29:55;;;;;;;6.72;1.70;;;;;;;12.67;87.27;99123.59;5073607;28;20497;-49
2021/12/25 11:32:24;;;;;;;5.68;1.75;;;;;;;12.37;90.47;99113.97;5073684;28;20053;-51
2021/12/25 11:34:52;;;;;;;10.90;2.08;;;;;;;12.45;91.55;99127.41;5073489;28;20057;-52
2021/12/25 11:37:20;;;;;;;5.65;1.70;;;;;;;12.58;93.84;99109.34;5073595;28;20064;-48
2021/12/25 11:39:53;;;;;;;5.05;1.90;;;;;;;12.88;90.64;99119.91;5073654;28;20056;-51
2021/12/25 11:42:24;;;;;;;4.57;1.80;;;;;;;12.63;89.47;99108.91;5073917;28;20063;-51
2021/12/25 11:44:54;;;;;;;5.18;1.85;;;;;;;12.42;90.80;99133.00;5076587;28;20068;-50
2021/12/25 11:47:36;;;;;;;5.95;2.00;;;;;;;12.13;92.54;99114.41;5076539;28;20057;-49
2021/12/25 11:50:08;;;;;;;10.32;2.13;;;;;;;11.88;94.48;99109.47;5077882;28;20053;-50
2021/12/25 11:52:42;;;;;;;7.95;1.67;;;;;;;11.94;95.39;99101.94;5078050;28;20053;-51
2021/12/25 11:55:32;;;;;;;8.43;2.60;;;;;;;12.26;95.43;99097.19;5076349;28;20060;-50
2021/12/25 11:58:17;;;;;;;7.90;2.63;;;;;;;12.62;92.13;99099.25;5077553;28;20075;-51
2021/12/25 12:00:49;;;;;;;5.57;2.25;;;;;;;14.35;88.12;99094.16;5077530;28;20111;-50
2021/12/25 12:03:36;;;;;;;9.40;2.07;;;;;;;16.50;72.21;99094.09;5077024;28;20052;-52
2021/12/25 12:06:04;;;;;;;4.55;1.50;;;;;;;17.78;63.98;99094.06;5076416;28;20504;-49
2021/12/25 12:09:08;;;;;;;6.80;2.17;;;;;;;18.11;62.82;99083.16;5077306;28;20083;-49
2021/12/25 12:11:40;;;;;;;5.88;1.83;;;;;;;17.74;62.59;99075.84;5077275;28;20056;-51
2021/12/25 12:14:21;;;;;;;3.78;1.80;;;;;;;17.09;64.19;99089.31;5076163;28;20508;-50
2021/12/25 12:16:51;;;;;;;5.15;1.70;;;;;;;15.74;69.71;99087.97;5076876;28;20071;-51
2021/12/25 12:19:41;;;;;;;5.70;1.60;;;;;;;14.01;79.08;99092.19;5076923;28;20059;-52
2021/12/25 12:22:54;;;;;;;6.90;2.20;;;;;;;13.24;83.46;99088.97;5075993;28;20067;-50
2021/12/25 12:25:29;;;;;;;8.00;2.10;;;;;;;12.40;88.77;99077.28;5076618;28;20123;-49
2021/12/25 12:27:59;;;;;;;7.22;2.33;;;;;;;12.04;91.72;99078.88;5076087;28;20059;-50
2021/12/25 12:30:50;;;;;;;9.13;2.25;;;;;;;11.86;93.49;99076.03;5076433;28;20056;-49
2021/12/25 12:33:49;;;;;;;14.65;2.30;;;;;;;11.98;94.37;99082.06;5077180;28;20053;-51
2021/12/25 12:36:23;;;;;;;9.68;2.67;;;;;;;11.97;94.84;99080.38;5076391;28;20063;-50
2021/12/25 12:38:55;;;;;;;8.27;2.20;;;;;;;11.97;94.67;99072.41;5075660;28;20056;-50
2021/12/25 12:41:27;;;;;;;10.35;2.35;;;;;;;11.93;95.13;99079.00;5076560;28;20052;-51